sensor_id;sensor_type;location;lat;lon;timestamp;pressure;altitude;pressure_sealevel;temperature;humidity
75681;BME280;64294;49.176;16.626;2023-09-12T00:02:18;99045.31;;;19.10;100.00
75681;BME280;64294;49.176;16.626;2023-09-12T00:04:44;99044.72;;;19.12;100.00
75681;BME280;64294;49.176;16.626;2023-09-12T00:07:09;99040.41;;;19.01;100.00
75681;BME280;64294;49.176;16.626;2023-09-12T00:09:34;99044.31;;;18.96;100.00
75681;BME280;64294;49.176;16.626;2023-09-12T00:12:00;99038.22;;;18.80;100.00
75681;BME280;64294;49.176;16.626;2023-09-12T00:14:25;99040.00;;;18.75;100.00
75681;BME280;64294;49.176;16.626;2023-09-12T00:16:50;99042.69;;;18.73;100.00
75681;BME280;64294;49.176;16.626;2023-09-12T00:19:18;99037.28;;;18.77;100.00
75681;BME280;64294;49.176;16.626;2023-09-12T00:21:43;99030.38;;;18.90;100.00
75681;BME280;64294;49.176;16.626;2023-09-12T00:24:08;99034.91;;;18.84;100.00
75681;BME280;64294;49.176;16.626;2023-09-12T00:26:34;99031.63;;;18.68;100.00
75681;BME280;64294;49.176;16.626;2023-09-12T00:28:59;99033.88;;;18.60;100.00
75681;BME280;64294;49.176;16.626;2023-09-12T00:31:25;99029.38;;;18.66;100.00
75681;BME280;64294;49.176;16.626;2023-09-12T00:33:53;99031.78;;;18.60;100.00
75681;BME280;64294;49.176;16.626;2023-09-12T00:36:19;99024.88;;;18.54;100.00
75681;BME280;64294;49.176;16.626;2023-09-12T00:38:44;99025.78;;;18.46;100.00
75681;BME280;64294;49.176;16.626;2023-09-12T00:41:09;99028.78;;;18.49;100.00
75681;BME280;64294;49.176;16.626;2023-09-12T00:43:35;99020.09;;;18.46;100.00
75681;BME280;64294;49.176;16.626;2023-09-12T00:46:00;99024.00;;;18.41;100.00
75681;BME280;64294;49.176;16.626;2023-09-12T00:48:26;99022.78;;;18.54;100.00
75681;BME280;64294;49.176;16.626;2023-09-12T00:50:52;99023.53;;;18.35;100.00
75681;BME280;64294;49.176;16.626;2023-09-12T00:53:19;99026.22;;;18.33;100.00
75681;BME280;64294;49.176;16.626;2023-09-12T00:55:50;99021.31;;;18.24;100.00
75681;BME280;64294;49.176;16.626;2023-09-12T00:58:16;99017.41;;;18.10;100.00
75681;BME280;64294;49.176;16.626;2023-09-12T01:00:45;99016.19;;;18.13;100.00
75681;BME280;64294;49.176;16.626;2023-09-12T01:03:10;99009.59;;;18.20;100.00
75681;BME280;64294;49.176;16.626;2023-09-12T01:05:36;99026.09;;;18.12;100.00
75681;BME280;64294;49.176;16.626;2023-09-12T01:08:02;99018.31;;;18.22;100.00
75681;BME280;64294;49.176;16.626;2023-09-12T01:10:28;99025.03;;;18.27;100.00
75681;BME280;64294;49.176;16.626;2023-09-12T01:12:53;99017.84;;;18.16;100.00
75681;BME280;64294;49.176;16.626;2023-09-12T01:15:21;99016.66;;;18.09;100.00
75681;BME280;64294;49.176;16.626;2023-09-12T01:17:47;99017.69;;;18.04;100.00
75681;BME280;64294;49.176;16.626;2023-09-12T01:20:31;99010.06;;;18.16;100.00
75681;BME280;64294;49.176;16.626;2023-09-12T01:28:30;99013.78;;;18.19;100.00
75681;BME280;64294;49.176;16.626;2023-09-12T01:31:00;99017.84;;;18.16;100.00
75681;BME280;64294;49.176;16.626;2023-09-12T01:33:26;99014.88;;;18.24;100.00
75681;BME280;64294;49.176;16.626;2023-09-12T01:35:52;99026.22;;;18.33;100.00
75681;BME280;64294;49.176;16.626;2023-09-12T01:38:18;99016.50;;;18.36;100.00
75681;BME280;64294;49.176;16.626;2023-09-12T01:40:47;99027.28;;;18.48;100.00
75681;BME280;64294;49.176;16.626;2023-09-12T01:43:16;99025.19;;;18.38;100.00
75681;BME280;64294;49.176;16.626;2023-09-12T01:45:43;99025.03;;;18.27;100.00
75681;BME280;64294;49.176;16.626;2023-09-12T01:48:11;99023.56;;;18.26;100.00
75681;BME280;64294;49.176;16.626;2023-09-12T01:50:36;99025.03;;;18.17;100.00
75681;BME280;64294;49.176;16.626;2023-09-12T01:53:03;99028.16;;;18.21;100.00
75681;BME280;64294;49.176;16.626;2023-09-12T01:55:29;99021.75;;;18.11;100.00
75681;BME280;64294;49.176;16.626;2023-09-12T01:57:55;99029.19;;;17.97;100.00
75681;BME280;64294;49.176;16.626;2023-09-12T02:00:22;99033.66;;;17.80;100.00
75681;BME280;64294;49.176;16.626;2023-09-12T02:02:48;99035.31;;;17.83;100.00
75681;BME280;64294;49.176;16.626;2023-09-12T02:05:21;99040.53;;;17.77;100.00
75681;BME280;64294;49.176;16.626;2023-09-12T02:07:47;99036.34;;;17.78;100.00
75681;BME280;64294;49.176;16.626;2023-09-12T02:10:14;99033.22;;;17.74;100.00
75681;BME280;64294;49.176;16.626;2023-09-12T02:12:40;99033.81;;;17.82;100.00
75681;BME280;64294;49.176;16.626;2023-09-12T02:15:06;99036.50;;;17.80;100.00
75681;BME280;64294;49.176;16.626;2023-09-12T02:17:32;99038.44;;;17.78;100.00
75681;BME280;64294;49.176;16.626;2023-09-12T02:19:57;99044.41;;;17.72;100.00
75681;BME280;64294;49.176;16.626;2023-09-12T02:22:23;99041.13;;;17.76;100.00
75681;BME280;64294;49.176;16.626;2023-09-12T02:24:49;99040.53;;;17.77;100.00
75681;BME280;64294;49.176;16.626;2023-09-12T02:27:14;99040.81;;;17.72;100.00
75681;BME280;64294;49.176;16.626;2023-09-12T02:29:41;99046.50;;;17.72;100.00
75681;BME280;64294;49.176;16.626;2023-09-12T02:32:08;99042.09;;;17.61;100.00
75681;BME280;64294;49.176;16.626;2023-09-12T02:34:33;99046.13;;;17.58;100.00
75681;BME280;64294;49.176;16.626;2023-09-12T02:36:59;99040.91;;;17.64;100.00
75681;BME280;64294;49.176;16.626;2023-09-12T02:39:26;99040.59;;;17.60;100.00
75681;BME280;64294;49.176;16.626;2023-09-12T02:41:51;99043.16;;;17.66;100.00
75681;BME280;64294;49.176;16.626;2023-09-12T02:44:16;99043.53;;;17.70;100.00
75681;BME280;64294;49.176;16.626;2023-09-12T02:46:42;99046.38;;;17.70;100.00
75681;BME280;64294;49.176;16.626;2023-09-12T02:49:07;99040.69;;;17.79;100.00
75681;BME280;64294;49.176;16.626;2023-09-12T02:51:33;99040.69;;;17.79;100.00
75681;BME280;64294;49.176;16.626;2023-09-12T02:53:58;99041.16;;;17.85;100.00
75681;BME280;64294;49.176;16.626;2023-09-12T02:56:23;99046.09;;;17.95;100.00
75681;BME280;64294;49.176;16.626;2023-09-12T02:58:49;99047.44;;;17.84;100.00
75681;BME280;64294;49.176;16.626;2023-09-12T03:01:19;99048.16;;;17.84;100.00
75681;BME280;64294;49.176;16.626;2023-09-12T03:03:49;99051.06;;;17.94;100.00
75681;BME280;64294;49.176;16.626;2023-09-12T03:06:14;99048.34;;;17.96;100.00
75681;BME280;64294;49.176;16.626;2023-09-12T03:08:40;99051.78;;;17.85;100.00
75681;BME280;64294;49.176;16.626;2023-09-12T03:11:06;99045.19;;;17.82;100.00
75681;BME280;64294;49.176;16.626;2023-09-12T03:13:33;99046.97;;;17.68;100.00
75681;BME280;64294;49.176;16.626;2023-09-12T03:15:59;99050.47;;;17.59;100.00
75681;BME280;64294;49.176;16.626;2023-09-12T03:18:25;99053.03;;;17.65;100.00
75681;BME280;64294;49.176;16.626;2023-09-12T03:20:50;99055.72;;;17.63;100.00
75681;BME280;64294;49.176;16.626;2023-09-12T03:23:16;99045.63;;;17.69;100.00
75681;BME280;64294;49.176;16.626;2023-09-12T03:25:44;99051.13;;;17.67;100.00
75681;BME280;64294;49.176;16.626;2023-09-12T03:28:10;99044.94;;;17.51;100.00
75681;BME280;64294;49.176;16.626;2023-09-12T03:30:37;99054.81;;;17.60;100.00
75681;BME280;64294;49.176;16.626;2023-09-12T03:33:03;99057.91;;;17.45;100.00
75681;BME280;64294;49.176;16.626;2023-09-12T03:35:30;99055.28;;;17.66;100.00
75681;BME280;64294;49.176;16.626;2023-09-12T03:37:56;99052.84;;;17.53;100.00
75681;BME280;64294;49.176;16.626;2023-09-12T03:40:21;99059.69;;;17.40;100.00
75681;BME280;64294;49.176;16.626;2023-09-12T03:42:47;99065.16;;;17.29;100.00
75681;BME280;64294;49.176;16.626;2023-09-12T03:45:12;99056.91;;;17.23;100.00
75681;BME280;64294;49.176;16.626;2023-09-12T03:47:37;99058.09;;;17.20;100.00
75681;BME280;64294;49.176;16.626;2023-09-12T03:50:04;99055.69;;;17.16;100.00
75681;BME280;64294;49.176;16.626;2023-09-12T03:52:30;99054.03;;;17.13;100.00
75681;BME280;64294;49.176;16.626;2023-09-12T03:54:55;99057.19;;;17.17;100.00
75681;BME280;64294;49.176;16.626;2023-09-12T03:57:21;99054.06;;;17.23;100.00
75681;BME280;64294;49.176;16.626;2023-09-12T03:59:47;99057.03;;;17.15;100.00
75681;BME280;64294;49.176;16.626;2023-09-12T04:02:13;99056.28;;;17.15;100.00
75681;BME280;64294;49.176;16.626;2023-09-12T04:04:38;99065.16;;;17.02;100.00
75681;BME280;64294;49.176;16.626;2023-09-12T04:07:04;99059.09;;;16.88;100.00
75681;BME280;64294;49.176;16.626;2023-09-12T04:09:31;99066.19;;;16.97;100.00
75681;BME280;64294;49.176;16.626;2023-09-12T04:11:56;99061.09;;;16.95;100.00
75681;BME280;64294;49.176;16.626;2023-09-12T04:14:22;99066.97;;;16.80;100.00
75681;BME280;64294;49.176;16.626;2023-09-12T04:16:47;99073.84;;;16.77;100.00
75681;BME280;64294;49.176;16.626;2023-09-12T04:19:16;99075.91;;;16.76;100.00
75681;BME280;64294;49.176;16.626;2023-09-12T04:21:41;99074.81;;;16.72;100.00
75681;BME280;64294;49.176;16.626;2023-09-12T04:24:07;99074.75;;;16.79;100.00
75681;BME280;64294;49.176;16.626;2023-09-12T04:26:33;99071.91;;;16.79;100.00
75681;BME280;64294;49.176;16.626;2023-09-12T04:28:58;99076.09;;;16.78;100.00
75681;BME280;64294;49.176;16.626;2023-09-12T04:31:24;99068.63;;;16.65;100.00
75681;BME280;64294;49.176;16.626;2023-09-12T04:33:53;99066.97;;;16.62;100.00
75681;BME280;64294;49.176;16.626;2023-09-12T04:36:22;99058.38;;;16.70;100.00
75681;BME280;64294;49.176;16.626;2023-09-12T04:38:48;99058.16;;;16.76;100.00
75681;BME280;64294;49.176;16.626;2023-09-12T04:41:13;99065.53;;;16.88;100.00
75681;BME280;64294;49.176;16.626;2023-09-12T04:43:43;99064.53;;;16.93;100.00
75681;BME280;64294;49.176;16.626;2023-09-12T04:46:10;99062.22;;;16.82;100.00
75681;BME280;64294;49.176;16.626;2023-09-12T04:48:35;99057.41;;;17.02;100.00
75681;BME280;64294;49.176;16.626;2023-09-12T04:51:00;99062.28;;;16.92;100.00
75681;BME280;64294;49.176;16.626;2023-09-12T04:53:26;99062.00;;;16.98;100.00
75681;BME280;64294;49.176;16.626;2023-09-12T04:55:54;99058.56;;;16.99;100.00
75681;BME280;64294;49.176;16.626;2023-09-12T04:58:19;99065.31;;;17.04;100.00
75681;BME280;64294;49.176;16.626;2023-09-12T05:00:45;99066.38;;;17.08;100.00
75681;BME280;64294;49.176;16.626;2023-09-12T05:03:11;99073.16;;;17.13;100.00
75681;BME280;64294;49.176;16.626;2023-09-12T05:05:36;99064.81;;;17.15;100.00
75681;BME280;64294;49.176;16.626;2023-09-12T05:08:02;99068.72;;;17.29;100.00
75681;BME280;64294;49.176;16.626;2023-09-12T05:10:27;99077.69;;;17.52;100.00
75681;BME280;64294;49.176;16.626;2023-09-12T05:12:53;99074.84;;;17.62;100.00
75681;BME280;64294;49.176;16.626;2023-09-12T05:15:18;99078.97;;;17.78;100.00
75681;BME280;64294;49.176;16.626;2023-09-12T05:17:44;99085.75;;;17.93;100.00
75681;BME280;64294;49.176;16.626;2023-09-12T05:20:10;99087.91;;;18.11;100.00
75681;BME280;64294;49.176;16.626;2023-09-12T05:22:35;99092.25;;;18.32;100.00
75681;BME280;64294;49.176;16.626;2023-09-12T05:25:00;99084.78;;;18.46;100.00
75681;BME280;64294;49.176;16.626;2023-09-12T05:27:26;99086.28;;;18.57;100.00
75681;BME280;64294;49.176;16.626;2023-09-12T05:29:51;99084.06;;;18.74;100.00
75681;BME280;64294;49.176;16.626;2023-09-12T05:32:17;99079.41;;;18.98;100.00
75681;BME280;64294;49.176;16.626;2023-09-12T05:34:45;99084.88;;;19.25;99.70
75681;BME280;64294;49.176;16.626;2023-09-12T05:37:11;99076.53;;;19.58;97.88
75681;BME280;64294;49.176;16.626;2023-09-12T05:39:36;99087.00;;;19.65;96.02
75681;BME280;64294;49.176;16.626;2023-09-12T05:42:02;99086.75;;;19.83;94.76
75681;BME280;64294;49.176;16.626;2023-09-12T05:44:27;99082.94;;;20.21;92.34
75681;BME280;64294;49.176;16.626;2023-09-12T05:46:52;99087.38;;;20.55;90.12
75681;BME280;64294;49.176;16.626;2023-09-12T05:49:19;99085.19;;;20.65;89.13
75681;BME280;64294;49.176;16.626;2023-09-12T05:51:44;99070.44;;;20.80;87.01
75681;BME280;64294;49.176;16.626;2023-09-12T05:54:11;99069.59;;;21.34;85.17
75681;BME280;64294;49.176;16.626;2023-09-12T05:56:39;99076.94;;;21.37;83.80
75681;BME280;64294;49.176;16.626;2023-09-12T05:59:05;99077.72;;;21.50;83.14
75681;BME280;64294;49.176;16.626;2023-09-12T06:01:30;99082.69;;;21.72;82.21
75681;BME280;64294;49.176;16.626;2023-09-12T06:03:55;99084.94;;;21.86;81.26
75681;BME280;64294;49.176;16.626;2023-09-12T06:06:21;99087.38;;;22.26;80.37
75681;BME280;64294;49.176;16.626;2023-09-12T06:08:49;99087.03;;;22.69;77.30
75681;BME280;64294;49.176;16.626;2023-09-12T06:11:14;99092.03;;;22.57;77.59
75681;BME280;64294;49.176;16.626;2023-09-12T06:13:39;99095.13;;;22.98;74.50
75681;BME280;64294;49.176;16.626;2023-09-12T06:16:05;99096.47;;;23.48;73.00
75681;BME280;64294;49.176;16.626;2023-09-12T06:18:32;99099.09;;;24.10;70.02
75681;BME280;64294;49.176;16.626;2023-09-12T06:21:00;99097.94;;;24.29;67.59
75681;BME280;64294;49.176;16.626;2023-09-12T06:23:31;99097.88;;;24.57;65.62
75681;BME280;64294;49.176;16.626;2023-09-12T06:25:56;99103.81;;;25.49;63.06
75681;BME280;64294;49.176;16.626;2023-09-12T06:28:26;99096.00;;;27.18;57.64
75681;BME280;64294;49.176;16.626;2023-09-12T06:30:52;99092.63;;;28.40;52.00
75681;BME280;64294;49.176;16.626;2023-09-12T06:33:17;99095.47;;;29.73;47.42
75681;BME280;64294;49.176;16.626;2023-09-12T06:35:43;99081.50;;;31.63;42.33
75681;BME280;64294;49.176;16.626;2023-09-12T06:38:08;99091.81;;;32.05;40.73
75681;BME280;64294;49.176;16.626;2023-09-12T06:40:33;99090.41;;;32.44;39.14
75681;BME280;64294;49.176;16.626;2023-09-12T06:42:59;99094.63;;;33.23;37.57
75681;BME280;64294;49.176;16.626;2023-09-12T06:45:24;99093.72;;;34.17;36.22
75681;BME280;64294;49.176;16.626;2023-09-12T06:47:50;99090.91;;;34.25;35.38
75681;BME280;64294;49.176;16.626;2023-09-12T06:50:15;99086.81;;;35.46;33.57
75681;BME280;64294;49.176;16.626;2023-09-12T06:52:43;99090.72;;;35.89;32.73
75681;BME280;64294;49.176;16.626;2023-09-12T06:55:09;99098.19;;;36.41;31.12
75681;BME280;64294;49.176;16.626;2023-09-12T06:57:34;99097.97;;;35.82;31.85
75681;BME280;64294;49.176;16.626;2023-09-12T07:00:01;99106.69;;;34.75;34.37
75681;BME280;64294;49.176;16.626;2023-09-12T07:02:31;99103.34;;;35.05;33.77
75681;BME280;64294;49.176;16.626;2023-09-12T07:04:58;99100.84;;;34.75;34.08
75681;BME280;64294;49.176;16.626;2023-09-12T07:07:24;99107.59;;;34.89;33.71
75681;BME280;64294;49.176;16.626;2023-09-12T07:09:49;99100.13;;;33.47;36.12
75681;BME280;64294;49.176;16.626;2023-09-12T07:12:15;99097.66;;;32.43;38.05
75681;BME280;64294;49.176;16.626;2023-09-12T07:14:40;99099.63;;;31.00;40.38
75681;BME280;64294;49.176;16.626;2023-09-12T07:17:06;99092.91;;;30.35;43.10
75681;BME280;64294;49.176;16.626;2023-09-12T07:19:31;99102.31;;;30.62;42.74
75681;BME280;64294;49.176;16.626;2023-09-12T07:21:57;99104.00;;;31.31;41.11
75681;BME280;64294;49.176;16.626;2023-09-12T07:24:26;99106.13;;;34.20;35.51
75681;BME280;64294;49.176;16.626;2023-09-12T07:26:52;99112.19;;;34.38;34.64
75681;BME280;64294;49.176;16.626;2023-09-12T07:29:17;99101.69;;;34.13;34.76
75681;BME280;64294;49.176;16.626;2023-09-12T07:31:43;99098.06;;;36.06;32.17
75681;BME280;64294;49.176;16.626;2023-09-12T07:34:08;99104.06;;;36.57;31.60
75681;BME280;64294;49.176;16.626;2023-09-12T07:36:35;99100.16;;;39.87;27.08
75681;BME280;64294;49.176;16.626;2023-09-12T07:39:01;99111.34;;;37.72;29.51
75681;BME280;64294;49.176;16.626;2023-09-12T07:41:28;99098.13;;;37.69;28.92
75681;BME280;64294;49.176;16.626;2023-09-12T07:43:54;99111.72;;;38.50;28.27
75681;BME280;64294;49.176;16.626;2023-09-12T07:46:19;99099.16;;;41.08;24.69
75681;BME280;64294;49.176;16.626;2023-09-12T07:48:44;99102.72;;;40.69;25.29
75681;BME280;64294;49.176;16.626;2023-09-12T07:51:14;99100.47;;;41.17;24.93
75681;BME280;64294;49.176;16.626;2023-09-12T07:53:43;99100.78;;;39.32;26.52
75681;BME280;64294;49.176;16.626;2023-09-12T07:56:09;99103.16;;;39.16;26.89
75681;BME280;64294;49.176;16.626;2023-09-12T07:58:35;99093.78;;;37.50;29.33
75681;BME280;64294;49.176;16.626;2023-09-12T08:01:07;99092.25;;;37.71;28.63
75681;BME280;64294;49.176;16.626;2023-09-12T08:03:34;99095.84;;;37.96;28.19
75681;BME280;64294;49.176;16.626;2023-09-12T08:06:02;99088.59;;;41.60;24.24
75681;BME280;64294;49.176;16.626;2023-09-12T08:08:31;99082.66;;;41.62;24.13
75681;BME280;64294;49.176;16.626;2023-09-12T08:10:56;99081.25;;;42.29;23.73
75681;BME280;64294;49.176;16.626;2023-09-12T08:13:22;99084.75;;;42.38;23.24
75681;BME280;64294;49.176;16.626;2023-09-12T08:15:48;99083.97;;;42.40;23.40
75681;BME280;64294;49.176;16.626;2023-09-12T08:18:13;99085.78;;;44.21;21.43
75681;BME280;64294;49.176;16.626;2023-09-12T08:20:39;99081.81;;;43.27;22.45
75681;BME280;64294;49.176;16.626;2023-09-12T08:23:07;99087.44;;;42.81;22.66
75681;BME280;64294;49.176;16.626;2023-09-12T08:25:33;99084.63;;;42.11;23.33
75681;BME280;64294;49.176;16.626;2023-09-12T08:27:58;99084.28;;;40.21;25.79
75681;BME280;64294;49.176;16.626;2023-09-12T08:30:24;99082.59;;;44.29;21.23
75681;BME280;64294;49.176;16.626;2023-09-12T08:32:50;99081.53;;;42.81;22.98
75681;BME280;64294;49.176;16.626;2023-09-12T08:35:19;99086.53;;;44.22;21.32
75681;BME280;64294;49.176;16.626;2023-09-12T08:37:44;99084.66;;;43.85;22.49
75681;BME280;64294;49.176;16.626;2023-09-12T08:40:12;99077.69;;;43.16;22.44
75681;BME280;64294;49.176;16.626;2023-09-12T08:42:44;99080.88;;;46.45;19.20
75681;BME280;64294;49.176;16.626;2023-09-12T08:45:17;99079.97;;;47.20;18.25
75681;BME280;64294;49.176;16.626;2023-09-12T08:47:52;99083.97;;;45.01;20.29
75681;BME280;64294;49.176;16.626;2023-09-12T08:50:18;99076.69;;;47.93;18.07
75681;BME280;64294;49.176;16.626;2023-09-12T08:52:47;99070.13;;;46.16;18.97
75681;BME280;64294;49.176;16.626;2023-09-12T08:55:13;99065.91;;;45.51;19.87
75681;BME280;64294;49.176;16.626;2023-09-12T08:57:40;99072.53;;;46.85;18.93
75681;BME280;64294;49.176;16.626;2023-09-12T09:00:06;99075.44;;;42.87;22.23
75681;BME280;64294;49.176;16.626;2023-09-12T09:02:34;99070.81;;;43.77;21.44
75681;BME280;64294;49.176;16.626;2023-09-12T09:05:02;99076.75;;;43.77;21.30
75681;BME280;64294;49.176;16.626;2023-09-12T09:07:32;99070.50;;;43.88;22.32
75681;BME280;64294;49.176;16.626;2023-09-12T09:09:59;99071.53;;;41.28;23.79
75681;BME280;64294;49.176;16.626;2023-09-12T09:12:27;99069.41;;;43.99;21.33
75681;BME280;64294;49.176;16.626;2023-09-12T09:14:52;99076.28;;;41.10;23.75
75681;BME280;64294;49.176;16.626;2023-09-12T09:17:19;99066.59;;;42.56;21.57
75681;BME280;64294;49.176;16.626;2023-09-12T09:19:47;99070.97;;;42.88;21.83
75681;BME280;64294;49.176;16.626;2023-09-12T09:22:13;99061.72;;;44.79;20.17
75681;BME280;64294;49.176;16.626;2023-09-12T09:24:38;99065.31;;;45.46;19.81
75681;BME280;64294;49.176;16.626;2023-09-12T09:27:04;99061.47;;;45.89;18.87
75681;BME280;64294;49.176;16.626;2023-09-12T09:29:29;99065.13;;;44.42;20.01
75681;BME280;64294;49.176;16.626;2023-09-12T09:31:58;99067.09;;;44.95;19.41
75681;BME280;64294;49.176;16.626;2023-09-12T09:34:24;99072.03;;;43.35;20.78
75681;BME280;64294;49.176;16.626;2023-09-12T09:36:54;99068.69;;;46.15;18.55
75681;BME280;64294;49.176;16.626;2023-09-12T09:39:23;99069.50;;;45.12;19.83
75681;BME280;64294;49.176;16.626;2023-09-12T09:41:57;99053.97;;;46.11;18.39
75681;BME280;64294;49.176;16.626;2023-09-12T09:44:24;99047.81;;;46.17;19.00
75681;BME280;64294;49.176;16.626;2023-09-12T09:47:00;99065.28;;;44.84;20.45
75681;BME280;64294;49.176;16.626;2023-09-12T09:49:27;99050.97;;;45.93;18.91
75681;BME280;64294;49.176;16.626;2023-09-12T09:51:54;99055.25;;;46.35;18.81
75681;BME280;64294;49.176;16.626;2023-09-12T09:54:26;99050.09;;;45.77;18.99
75681;BME280;64294;49.176;16.626;2023-09-12T09:56:56;99050.13;;;44.25;20.42
75681;BME280;64294;49.176;16.626;2023-09-12T09:59:23;99042.94;;;44.41;20.62
75681;BME280;64294;49.176;16.626;2023-09-12T10:01:50;99038.31;;;44.48;20.73
75681;BME280;64294;49.176;16.626;2023-09-12T10:04:18;99040.16;;;43.89;20.83
75681;BME280;64294;49.176;16.626;2023-09-12T10:06:45;99035.31;;;43.50;20.78
75681;BME280;64294;49.176;16.626;2023-09-12T10:09:12;99028.25;;;45.85;19.14
75681;BME280;64294;49.176;16.626;2023-09-12T10:11:40;99034.66;;;42.94;21.77
75681;BME280;64294;49.176;16.626;2023-09-12T10:14:07;99035.66;;;44.38;20.46
75681;BME280;64294;49.176;16.626;2023-09-12T10:16:34;99023.38;;;42.43;22.94
75681;BME280;64294;49.176;16.626;2023-09-12T10:19:24;99016.19;;;42.00;23.05
75681;BME280;64294;49.176;16.626;2023-09-12T10:24:43;99022.94;;;40.40;25.01
75681;BME280;64294;49.176;16.626;2023-09-12T10:27:11;99015.59;;;42.58;22.35
75681;BME280;64294;49.176;16.626;2023-09-12T10:29:37;99016.56;;;42.79;21.81
75681;BME280;64294;49.176;16.626;2023-09-12T10:32:03;99004.13;;;40.64;23.84
75681;BME280;64294;49.176;16.626;2023-09-12T10:34:32;99013.06;;;42.71;23.14
75681;BME280;64294;49.176;16.626;2023-09-12T10:36:58;99006.81;;;42.25;22.17
75681;BME280;64294;49.176;16.626;2023-09-12T10:39:27;99018.63;;;41.92;22.10
75681;BME280;64294;49.176;16.626;2023-09-12T10:41:53;99009.88;;;40.27;24.27
75681;BME280;64294;49.176;16.626;2023-09-12T10:44:20;99004.38;;;42.33;21.72
75681;BME280;64294;49.176;16.626;2023-09-12T10:46:47;99009.56;;;42.64;21.94
75681;BME280;64294;49.176;16.626;2023-09-12T10:49:15;98994.13;;;42.88;21.69
75681;BME280;64294;49.176;16.626;2023-09-12T10:51:45;99011.78;;;41.68;21.77
75681;BME280;64294;49.176;16.626;2023-09-12T10:54:24;99009.50;;;42.04;22.19
75681;BME280;64294;49.176;16.626;2023-09-12T10:57:10;98999.38;;;42.57;21.84
75681;BME280;64294;49.176;16.626;2023-09-12T11:02:37;98996.97;;;42.34;21.90
75681;BME280;64294;49.176;16.626;2023-09-12T11:05:04;98995.44;;;41.73;21.96
75681;BME280;64294;49.176;16.626;2023-09-12T11:12:47;98995.28;;;43.02;21.66
75681;BME280;64294;49.176;16.626;2023-09-12T11:15:14;98998.25;;;43.02;21.43
75681;BME280;64294;49.176;16.626;2023-09-12T11:17:43;98984.22;;;42.13;21.62
75681;BME280;64294;49.176;16.626;2023-09-12T11:20:09;98994.63;;;42.10;21.94
75681;BME280;64294;49.176;16.626;2023-09-12T11:22:46;98989.13;;;41.57;23.03
75681;BME280;64294;49.176;16.626;2023-09-12T11:30:19;99003.88;;;41.20;24.07
75681;BME280;64294;49.176;16.626;2023-09-12T11:32:47;98997.84;;;39.36;24.78
75681;BME280;64294;49.176;16.626;2023-09-12T11:35:14;98998.44;;;38.80;25.40
75681;BME280;64294;49.176;16.626;2023-09-12T11:37:51;98987.19;;;41.78;22.61
75681;BME280;64294;49.176;16.626;2023-09-12T11:40:23;98986.38;;;41.09;23.40
75681;BME280;64294;49.176;16.626;2023-09-12T11:42:49;98986.31;;;41.13;22.73
75681;BME280;64294;49.176;16.626;2023-09-12T11:45:18;98987.91;;;38.19;26.17
75681;BME280;64294;49.176;16.626;2023-09-12T11:47:45;98978.91;;;40.30;23.87
75681;BME280;64294;49.176;16.626;2023-09-12T11:50:33;98985.34;;;39.93;23.63
75681;BME280;64294;49.176;16.626;2023-09-12T11:53:09;98980.69;;;40.11;23.95
75681;BME280;64294;49.176;16.626;2023-09-12T11:55:41;98974.41;;;41.55;22.84
75681;BME280;64294;49.176;16.626;2023-09-12T11:58:07;98970.06;;;41.14;23.14
75681;BME280;64294;49.176;16.626;2023-09-12T12:00:35;98976.63;;;39.85;23.82
75681;BME280;64294;49.176;16.626;2023-09-12T12:03:04;98972.47;;;41.04;22.85
75681;BME280;64294;49.176;16.626;2023-09-12T12:05:29;98966.94;;;42.26;22.11
75681;BME280;64294;49.176;16.626;2023-09-12T12:07:55;98978.34;;;42.42;22.19
75681;BME280;64294;49.176;16.626;2023-09-12T12:10:23;98974.16;;;40.95;23.37
75681;BME280;64294;49.176;16.626;2023-09-12T12:12:52;98970.72;;;40.80;22.79
75681;BME280;64294;49.176;16.626;2023-09-12T12:15:18;98974.50;;;39.80;24.57
75681;BME280;64294;49.176;16.626;2023-09-12T12:17:43;98972.56;;;38.96;25.38
75681;BME280;64294;49.176;16.626;2023-09-12T12:20:11;98969.22;;;39.33;25.26
75681;BME280;64294;49.176;16.626;2023-09-12T12:22:37;98974.44;;;37.18;26.69
75681;BME280;64294;49.176;16.626;2023-09-12T12:25:10;98977.38;;;37.22;26.99
75681;BME280;64294;49.176;16.626;2023-09-12T12:27:37;98967.19;;;36.92;28.82
75681;BME280;64294;49.176;16.626;2023-09-12T12:30:07;98965.72;;;35.92;30.21
75681;BME280;64294;49.176;16.626;2023-09-12T12:32:33;98967.06;;;35.68;29.85
75681;BME280;64294;49.176;16.626;2023-09-12T12:34:59;98958.03;;;35.05;29.76
75681;BME280;64294;49.176;16.626;2023-09-12T12:37:29;98964.38;;;34.71;31.17
75681;BME280;64294;49.176;16.626;2023-09-12T12:39:59;98956.44;;;34.84;30.81
75681;BME280;64294;49.176;16.626;2023-09-12T12:42:32;98961.59;;;34.87;31.18
75681;BME280;64294;49.176;16.626;2023-09-12T12:44:57;98954.88;;;34.71;31.98
75681;BME280;64294;49.176;16.626;2023-09-12T12:47:23;98957.78;;;34.65;31.47
75681;BME280;64294;49.176;16.626;2023-09-12T12:49:52;98961.34;;;33.78;31.65
75681;BME280;64294;49.176;16.626;2023-09-12T12:52:26;98951.53;;;34.16;31.82
75681;BME280;64294;49.176;16.626;2023-09-12T12:54:52;98947.06;;;34.05;31.85
75681;BME280;64294;49.176;16.626;2023-09-12T12:57:20;98952.94;;;34.09;32.44
75681;BME280;64294;49.176;16.626;2023-09-12T12:59:48;98945.72;;;34.20;31.65
75681;BME280;64294;49.176;16.626;2023-09-12T13:02:15;98946.34;;;34.06;31.69
75681;BME280;64294;49.176;16.626;2023-09-12T13:04:42;98946.66;;;33.09;32.79
75681;BME280;64294;49.176;16.626;2023-09-12T13:07:07;98941.19;;;32.81;32.90